Time;durP1;ratioP1;P1;durP2;ratioP2;P2;SDS_P1;SDS_P2;PMS_P1;PMS_P2;Temp;Humidity;BMP_temperature;BMP_pressure;BME280_temperature;BME280_humidity;BME280_pressure;Samples;Min_cycle;Max_cycle;Signal;HPM_P1;HPM_P2
2023/11/08 00:02:24;;;;;;;;;;;6.20;99.90;;;5.49;100.00;97778.25;4982248;28;1911;-73
2023/11/08 00:04:51;;;;;;;;;;;6.20;99.90;;;5.51;100.00;97770.50;4986309;28;1388;-73
2023/11/08 00:07:18;;;;;;;;;;;6.30;99.90;;;5.50;100.00;97774.81;4984558;28;1575;-73
2023/11/08 00:09:45;;;;;;;;;;;6.20;99.90;;;5.57;100.00;97776.38;4984466;28;1132;-73
2023/11/08 00:12:13;;;;;;;;;;;6.30;99.90;;;5.51;100.00;97779.06;4985403;28;1406;-72
2023/11/08 00:14:44;;;;;;;;;;;6.20;99.90;;;5.49;100.00;97772.25;4971512;28;1713;-73
2023/11/08 00:17:13;;;;;;;;;;;6.20;99.90;;;5.51;100.00;97780.81;4968547;28;2053;-73
2023/11/08 00:19:41;;;;;;;;;;;6.30;99.90;;;5.53;100.00;97772.16;4972226;28;1775;-72
2023/11/08 00:22:08;;;;;;;;;;;6.30;99.90;;;5.58;100.00;97780.63;4981085;28;1883;-72
2023/11/08 00:24:35;;;;;;;;;;;6.30;99.90;;;5.65;100.00;97771.91;4986749;28;1762;-73
2023/11/08 00:27:02;;;;;;;;;;;6.30;99.90;;;5.61;100.00;97774.56;4986912;28;1784;-73
2023/11/08 00:29:29;;;;;;;;;;;6.20;99.90;;;5.50;100.00;97767.09;4990201;28;1849;-73
2023/11/08 00:31:56;;;;;;;;;;;6.30;99.90;;;5.42;100.00;97759.50;4986557;28;1617;-73
2023/11/08 00:34:23;;;;;;;;;;;6.30;99.90;;;5.55;100.00;97772.16;4983900;28;1471;-73
2023/11/08 00:36:50;;;;;;;;;;;6.30;99.90;;;5.49;100.00;97770.53;4986323;28;1415;-73
2023/11/08 00:39:18;;;;;;;;;;;6.30;99.90;;;5.47;100.00;97767.13;4997930;28;1701;-73
2023/11/08 00:41:45;;;;;;;;;;;6.30;99.90;;;5.47;100.00;97761.13;4969841;28;1411;-73
2023/11/08 00:44:13;;;;;;;;;;;6.30;99.90;;;5.45;100.00;97774.91;4981912;28;1982;-73
2023/11/08 00:46:40;;;;;;;;;;;6.30;99.90;;;5.39;100.00;97766.44;4982581;28;1477;-73
2023/11/08 00:49:07;;;;;;;;;;;6.30;99.90;;;5.56;100.00;97773.81;4984534;28;1379;-73
2023/11/08 00:51:35;;;;;;;;;;;6.30;99.90;;;5.45;100.00;97785.19;4984847;28;1742;-73
2023/11/08 00:54:02;;;;;;;;;;;6.30;99.90;;;5.63;100.00;97783.13;4982600;28;1462;-72
2023/11/08 00:56:30;;;;;;;;;;;6.30;99.90;;;5.45;100.00;97768.88;4970755;28;1800;-73
2023/11/08 00:58:57;;;;;;;;;;;6.30;99.90;;;5.28;100.00;97781.22;4983466;28;1420;-73
2023/11/08 01:01:25;;;;;;;;;;;6.20;99.90;;;5.23;100.00;97779.59;4969667;28;1579;-70
2023/11/08 01:03:55;;;;;;;;;;;6.10;99.90;;;5.22;100.00;97790.78;4982024;28;1399;-73
2023/11/08 01:06:25;;;;;;;;;;;6.10;99.90;;;5.17;100.00;97786.56;4981556;28;1457;-73
2023/11/08 01:08:52;;;;;;;;;;;6.10;99.90;;;5.32;100.00;97798.31;4984201;28;1329;-73
2023/11/08 01:11:19;;;;;;;;;;;6.00;99.90;;;5.18;100.00;97794.25;4970844;28;1472;-73
2023/11/08 01:13:46;;;;;;;;;;;6.00;99.90;;;5.16;100.00;97790.88;4967948;28;1902;-73
2023/11/08 01:16:15;;;;;;;;;;;6.00;99.90;;;5.23;100.00;97802.75;4987036;28;1606;-72
2023/11/08 01:18:43;;;;;;;;;;;6.00;99.90;;;5.20;100.00;97800.22;4985113;28;1469;-73
2023/11/08 01:21:10;;;;;;;;;;;6.00;99.90;;;5.23;100.00;97797.59;4985809;28;1494;-73
2023/11/08 01:23:38;;;;;;;;;;;6.00;99.90;;;5.29;100.00;97814.66;4983249;28;1311;-72
2023/11/08 01:26:07;;;;;;;;;;;6.00;99.90;;;5.21;100.00;97798.50;4984432;28;1518;-73
2023/11/08 01:28:34;;;;;;;;;;;6.10;99.90;;;5.24;100.00;97795.88;4982608;28;1534;-73
2023/11/08 01:31:03;;;;;;;;;;;6.10;99.90;;;5.30;100.00;97815.50;4982415;28;1741;-73
2023/11/08 01:33:30;;;;;;;;;;;6.10;99.90;;;5.31;100.00;97800.03;4981279;28;1906;-73
2023/11/08 01:35:57;;;;;;;;;;;6.10;99.90;;;5.26;100.00;97808.72;4981209;28;1732;-73
2023/11/08 01:38:25;;;;;;;;;;;6.10;99.90;;;5.21;100.00;97817.38;4983896;28;1815;-73
2023/11/08 01:40:52;;;;;;;;;;;6.00;99.90;;;5.15;100.00;97796.88;4982237;28;1821;-73
2023/11/08 01:43:32;;;;;;;;;;;6.10;99.90;;;5.19;100.00;97790.81;4983335;28;1402;-73
2023/11/08 01:46:05;;;;;;;;;;;6.00;99.90;;;5.13;100.00;97800.34;4984068;28;1596;-74
2023/11/08 01:48:32;;;;;;;;;;;6.10;99.90;;;5.17;100.00;97807.16;4965514;28;1512;-73
2023/11/08 01:51:00;;;;;;;;;;;6.00;99.90;;;5.13;100.00;97806.38;4982041;28;1690;-73
2023/11/08 01:53:28;;;;;;;;;;;6.00;99.90;;;5.16;100.00;97788.28;4984866;28;2027;-73
2023/11/08 01:55:58;;;;;;;;;;;6.00;99.90;;;5.16;100.00;97790.88;4984327;28;1416;-73
2023/11/08 01:58:25;;;;;;;;;;;6.00;99.90;;;5.16;100.00;97793.44;4982070;28;1708;-73
2023/11/08 02:00:54;;;;;;;;;;;6.00;99.90;;;5.14;100.00;97802.91;4979743;28;1774;-73
2023/11/08 02:03:23;;;;;;;;;;;6.00;99.90;;;5.23;100.00;97797.59;4987097;28;1832;-73
2023/11/08 02:05:50;;;;;;;;;;;6.00;99.90;;;5.19;100.00;97795.94;4988556;28;1841;-74
2023/11/08 02:08:18;;;;;;;;;;;6.00;99.90;;;5.26;100.00;97790.69;4988335;28;2131;-72
2023/11/08 02:10:45;;;;;;;;;;;6.00;99.90;;;5.16;100.00;97788.28;4967547;28;2153;-73
2023/11/08 02:13:12;;;;;;;;;;;6.00;99.90;;;5.16;100.00;97790.03;4983695;28;1899;-73
2023/11/08 02:15:41;;;;;;;;;;;6.00;99.90;;;5.22;100.00;97797.63;4989646;28;1873;-73
2023/11/08 02:18:10;;;;;;;;;;;6.00;99.90;;;5.20;100.00;97786.50;4983516;28;1568;-73
2023/11/08 02:20:37;;;;;;;;;;;6.00;99.90;;;5.20;100.00;97794.22;4986848;28;1674;-73
2023/11/08 02:23:04;;;;;;;;;;;6.00;99.90;;;5.17;100.00;97792.56;4985464;28;1664;-73
2023/11/08 02:25:32;;;;;;;;;;;6.00;99.90;;;5.27;100.00;97803.56;4989391;28;1559;-73
2023/11/08 02:27:59;;;;;;;;;;;6.10;99.90;;;5.23;100.00;97789.03;4986585;28;1585;-73
2023/11/08 02:30:26;;;;;;;;;;;6.10;99.90;;;5.20;100.00;97800.22;4986895;28;1482;-73
2023/11/08 02:32:53;;;;;;;;;;;6.10;99.90;;;5.23;100.00;97794.19;4985584;28;1906;-73
2023/11/08 02:35:21;;;;;;;;;;;6.10;99.90;;;5.27;100.00;97794.97;4974474;28;1705;-74
2023/11/08 02:37:48;;;;;;;;;;;6.10;99.90;;;5.30;100.00;97784.63;4985698;28;1735;-73
2023/11/08 02:40:16;;;;;;;;;;;6.10;99.90;;;5.22;100.00;97777.03;4987052;28;1651;-73
2023/11/08 02:42:44;;;;;;;;;;;6.10;99.90;;;5.27;100.00;97792.38;4987929;28;1531;-73
2023/11/08 02:45:12;;;;;;;;;;;6.10;99.90;;;5.28;100.00;97789.78;4989207;28;1641;-73
2023/11/08 02:47:40;;;;;;;;;;;6.10;99.90;;;5.22;100.00;97782.19;4989549;28;1552;-73
2023/11/08 02:50:07;;;;;;;;;;;6.10;99.90;;;5.23;100.00;97786.47;4969405;28;1507;-73
2023/11/08 02:52:35;;;;;;;;;;;6.10;99.90;;;5.24;100.00;97783.00;4986868;28;1975;-73
2023/11/08 02:55:03;;;;;;;;;;;6.10;99.90;;;5.27;100.00;97793.25;4986691;28;1771;-73
2023/11/08 02:57:30;;;;;;;;;;;6.10;99.90;;;5.30;100.00;97787.19;4989287;28;1578;-73
2023/11/08 02:59:58;;;;;;;;;;;6.10;99.90;;;5.33;100.00;97787.97;4986957;28;1900;-73
2023/11/08 03:02:25;;;;;;;;;;;6.10;99.90;;;5.33;100.00;97790.56;4984814;28;1462;-74
2023/11/08 03:04:52;;;;;;;;;;;6.10;99.90;;;5.34;100.00;97788.84;4984640;28;1582;-74
2023/11/08 03:07:19;;;;;;;;;;;6.00;99.90;;;5.30;100.00;97788.03;4988618;28;1506;-74
2023/11/08 03:09:46;;;;;;;;;;;6.10;99.90;;;5.26;100.00;97795.84;4986019;28;1528;-73
2023/11/08 03:12:13;;;;;;;;;;;6.10;99.90;;;5.33;100.00;97793.13;4970809;28;1603;-73
2023/11/08 03:14:40;;;;;;;;;;;6.10;99.90;;;5.30;100.00;97794.94;4987720;28;1906;-74
2023/11/08 03:17:07;;;;;;;;;;;6.10;99.90;;;5.30;100.00;97805.22;4985230;28;1484;-74
2023/11/08 03:19:34;;;;;;;;;;;6.10;99.90;;;5.39;100.00;97803.31;4987890;28;1619;-73
2023/11/08 03:22:02;;;;;;;;;;;6.10;99.90;;;5.35;100.00;97799.09;4985305;28;1460;-74
2023/11/08 03:24:30;;;;;;;;;;;6.10;99.90;;;5.38;100.00;97798.19;5002727;28;1489;-73
2023/11/08 03:26:57;;;;;;;;;;;6.20;99.90;;;5.32;100.00;97794.00;4984087;28;1499;-73
2023/11/08 03:29:24;;;;;;;;;;;6.20;99.90;;;5.48;100.00;97799.72;4986463;28;2053;-74
2023/11/08 03:31:51;;;;;;;;;;;6.20;99.90;;;5.45;100.00;97794.63;4983022;28;1760;-74
2023/11/08 03:34:18;;;;;;;;;;;6.30;99.90;;;5.39;100.00;97799.91;4984343;28;1987;-74
2023/11/08 03:36:46;;;;;;;;;;;6.20;99.90;;;5.56;100.00;97812.44;4983641;28;1696;-74
2023/11/08 03:39:13;;;;;;;;;;;6.20;99.90;;;5.49;100.00;97806.56;4987858;28;1465;-74
2023/11/08 03:41:40;;;;;;;;;;;6.30;99.90;;;5.57;100.00;97807.28;4987210;28;1664;-72
2023/11/08 03:44:07;;;;;;;;;;;6.30;99.90;;;5.52;100.00;97801.38;4987339;28;1560;-74
2023/11/08 03:46:34;;;;;;;;;;;6.30;99.90;;;5.53;100.00;97812.53;4983299;28;1704;-74
2023/11/08 03:49:01;;;;;;;;;;;6.30;99.90;;;5.52;100.00;97810.81;4988246;28;1576;-73
2023/11/08 03:51:28;;;;;;;;;;;6.40;99.90;;;5.53;100.00;97815.09;4986067;28;1725;-74
2023/11/08 03:53:55;;;;;;;;;;;6.40;99.90;;;5.66;100.00;97816.56;4982487;28;1971;-73
2023/11/08 03:56:22;;;;;;;;;;;6.40;99.90;;;5.65;100.00;97822.56;4999385;28;1859;-74
2023/11/08 03:58:49;;;;;;;;;;;6.40;99.90;;;5.69;100.00;97826.78;4984900;28;1742;-73
2023/11/08 04:01:17;;;;;;;;;;;6.40;99.90;;;5.69;100.00;97810.50;4984800;28;1643;-73
2023/11/08 04:03:43;;;;;;;;;;;6.50;99.90;;;5.68;100.00;97826.81;4983850;28;1846;-74
2023/11/08 04:06:10;;;;;;;;;;;6.40;99.90;;;5.61;100.00;97824.38;4997840;28;1658;-74
2023/11/08 04:08:37;;;;;;;;;;;6.40;99.90;;;5.64;100.00;97818.31;4987320;28;1535;-73
2023/11/08 04:11:05;;;;;;;;;;;6.50;99.90;;;5.63;100.00;97824.31;4988018;28;1686;-73
2023/11/08 04:13:32;;;;;;;;;;;6.40;99.90;;;5.65;100.00;97822.56;4999633;28;1906;-74
2023/11/08 04:15:59;;;;;;;;;;;6.40;99.90;;;5.68;100.00;97835.41;4986466;28;1478;-74
2023/11/08 04:18:27;;;;;;;;;;;6.40;99.90;;;5.72;100.00;97841.34;4983347;28;1488;-74
2023/11/08 04:20:54;;;;;;;;;;;6.40;99.90;;;5.62;100.00;97836.38;4984542;28;1568;-73
2023/11/08 04:23:21;;;;;;;;;;;6.40;99.90;;;5.63;100.00;97835.50;4987903;28;1477;-74
2023/11/08 04:25:49;;;;;;;;;;;6.50;99.90;;;5.72;100.00;97851.66;4968216;28;1556;-74
2023/11/08 04:28:20;;;;;;;;;;;6.40;99.90;;;5.80;100.00;97844.63;4981110;28;1497;-74
2023/11/08 04:30:47;;;;;;;;;;;6.40;99.90;;;5.66;100.00;97839.75;4995595;28;1597;-74
2023/11/08 04:33:13;;;;;;;;;;;6.50;99.90;;;5.77;100.00;97836.94;4985255;28;1975;-74
2023/11/08 04:35:40;;;;;;;;;;;6.50;99.90;;;5.77;100.00;97842.09;4980826;28;1586;-73
2023/11/08 04:38:08;;;;;;;;;;;6.40;99.90;;;5.73;100.00;97827.59;4986080;28;1711;-73
2023/11/08 04:40:34;;;;;;;;;;;6.50;99.90;;;5.73;100.00;97832.75;4986585;28;1640;-74
2023/11/08 04:43:02;;;;;;;;;;;6.50;99.90;;;5.72;100.00;97821.56;4983406;28;1604;-74
2023/11/08 04:45:29;;;;;;;;;;;6.50;99.90;;;5.71;100.00;97832.78;4985072;28;1508;-74
2023/11/08 04:47:56;;;;;;;;;;;6.50;99.90;;;5.78;100.00;97830.94;4985091;28;1570;-74
2023/11/08 04:50:24;;;;;;;;;;;6.50;99.90;;;5.78;100.00;97833.50;4981086;28;1762;-73
2023/11/08 04:52:51;;;;;;;;;;;6.50;99.90;;;5.67;100.00;97833.69;4985118;28;1671;-74
2023/11/08 04:55:20;;;;;;;;;;;6.50;99.90;;;5.69;100.00;97828.53;4982755;28;1911;-73
2023/11/08 04:57:47;;;;;;;;;;;6.50;99.90;;;5.73;100.00;97832.75;4983538;28;1621;-74
2023/11/08 05:00:14;;;;;;;;;;;6.60;99.90;;;5.74;100.00;97837.84;4979273;28;1558;-73
2023/11/08 05:02:42;;;;;;;;;;;6.50;99.90;;;5.78;100.00;97856.69;4983927;28;1571;-73
2023/11/08 05:05:10;;;;;;;;;;;6.50;99.90;;;5.79;100.00;97836.06;4982438;28;1522;-72
2023/11/08 05:07:37;;;;;;;;;;;6.60;99.90;;;5.78;100.00;97846.38;4983650;28;1429;-73
2023/11/08 05:10:07;;;;;;;;;;;6.50;99.90;;;5.80;100.00;97847.22;4984142;28;1606;-73
2023/11/08 05:12:35;;;;;;;;;;;6.50;99.90;;;5.82;100.00;97841.16;4982357;28;1683;-73
2023/11/08 05:15:05;;;;;;;;;;;6.60;99.90;;;5.94;100.00;97836.63;4983192;28;1906;-73
2023/11/08 05:17:33;;;;;;;;;;;6.50;99.90;;;5.84;100.00;97841.13;4984341;28;1526;-73
2023/11/08 05:20:00;;;;;;;;;;;6.60;99.90;;;5.90;100.00;97845.28;4983798;28;1570;-73
2023/11/08 05:22:26;;;;;;;;;;;6.60;99.90;;;5.86;100.00;97842.78;4984167;28;1514;-73
2023/11/08 05:24:53;;;;;;;;;;;6.60;99.90;;;5.96;100.00;97846.06;4984523;28;1594;-73
2023/11/08 05:27:21;;;;;;;;;;;6.60;99.90;;;5.92;100.00;97844.38;4967849;28;1706;-73
2023/11/08 05:29:48;;;;;;;;;;;6.60;99.90;;;5.90;100.00;97853.03;4985114;28;1679;-73
2023/11/08 05:32:19;;;;;;;;;;;6.60;99.90;;;5.99;100.00;97835.69;4985020;28;1574;-73
2023/11/08 05:34:48;;;;;;;;;;;6.60;99.90;;;5.94;100.00;97829.78;4986103;28;1911;-73
2023/11/08 05:37:15;;;;;;;;;;;6.70;99.90;;;5.87;100.00;97823.03;4983487;28;1873;-73
2023/11/08 05:39:45;;;;;;;;;;;6.70;99.90;;;5.94;100.00;97827.19;4986552;28;1552;-73
2023/11/08 05:42:12;;;;;;;;;;;6.70;99.90;;;5.94;100.00;97827.19;4984816;28;1602;-73
2023/11/08 05:44:42;;;;;;;;;;;6.70;99.90;;;5.96;100.00;97828.03;4983513;28;1771;-73
2023/11/08 05:47:09;;;;;;;;;;;6.70;99.90;;;6.03;100.00;97833.91;5000745;28;1727;-73
2023/11/08 05:49:36;;;;;;;;;;;6.60;99.90;;;6.00;100.00;97827.09;4983380;28;1598;-73
2023/11/08 05:52:03;;;;;;;;;;;6.60;99.90;;;5.96;100.00;97819.44;4984103;28;1638;-73
2023/11/08 05:54:30;;;;;;;;;;;6.60;99.90;;;5.95;100.00;97836.63;4997654;28;1902;-73
2023/11/08 05:56:57;;;;;;;;;;;6.60;99.90;;;5.98;100.00;97828.84;4981950;28;1602;-73
2023/11/08 05:59:25;;;;;;;;;;;6.70;99.90;;;6.05;100.00;97842.44;4983170;28;1560;-73
2023/11/08 06:01:53;;;;;;;;;;;6.60;99.90;;;5.95;100.00;97849.50;4983597;28;1842;-74
2023/11/08 06:04:20;;;;;;;;;;;6.70;99.90;;;5.82;100.00;97837.72;4983131;28;1564;-73
2023/11/08 06:06:48;;;;;;;;;;;6.60;99.90;;;5.91;100.00;97842.69;4985128;28;1816;-73
2023/11/08 06:09:15;;;;;;;;;;;6.70;99.90;;;5.92;100.00;97844.38;4986263;28;1472;-73
2023/11/08 06:11:42;;;;;;;;;;;6.70;99.90;;;5.94;100.00;97850.38;4982359;28;1477;-73
2023/11/08 06:14:10;;;;;;;;;;;6.70;99.90;;;6.06;100.00;97846.72;4983290;28;1887;-73
2023/11/08 06:16:40;;;;;;;;;;;6.70;99.90;;;6.01;100.00;97844.22;4982508;28;1678;-73
2023/11/08 06:19:08;;;;;;;;;;;6.70;99.90;;;5.95;100.00;97861.53;4988061;28;1483;-73
2023/11/08 06:21:35;;;;;;;;;;;6.70;99.90;;;6.01;100.00;97861.44;4985745;28;1436;-72
2023/11/08 06:24:04;;;;;;;;;;;6.70;99.90;;;6.07;100.00;97869.03;4986262;28;1304;-73
2023/11/08 06:26:31;;;;;;;;;;;6.70;99.90;;;5.94;100.00;97872.69;4981066;28;1413;-72
2023/11/08 06:28:58;;;;;;;;;;;6.70;99.90;;;6.04;100.00;97869.09;4998807;28;1546;-73
2023/11/08 06:31:25;;;;;;;;;;;6.80;99.90;;;6.04;100.00;97867.38;4985200;28;1416;-73
2023/11/08 06:33:52;;;;;;;;;;;6.80;99.90;;;5.98;100.00;97866.66;4985607;28;1914;-73
2023/11/08 06:36:19;;;;;;;;;;;6.80;99.90;;;6.06;100.00;97868.16;4983596;28;1745;-73
2023/11/08 06:38:46;;;;;;;;;;;6.80;99.90;;;6.14;100.00;97870.63;4984076;28;1396;-73
2023/11/08 06:41:13;;;;;;;;;;;6.80;99.90;;;6.04;100.00;97871.66;4983147;28;1572;-74
2023/11/08 06:43:40;;;;;;;;;;;6.80;99.90;;;6.03;100.00;97873.41;4984703;28;1617;-74
2023/11/08 06:46:07;;;;;;;;;;;6.90;99.90;;;6.13;100.00;97860.31;4981844;28;1421;-75
2023/11/08 06:48:33;;;;;;;;;;;6.90;99.90;;;6.27;100.00;97876.34;4982505;28;1491;-74
2023/11/08 06:51:01;;;;;;;;;;;6.90;99.90;;;6.22;100.00;97870.44;4984112;28;1639;-75
2023/11/08 06:53:28;;;;;;;;;;;6.90;99.90;;;6.14;100.00;97869.78;4984295;28;1880;-75
2023/11/08 06:55:57;;;;;;;;;;;6.90;99.90;;;6.23;100.00;97873.00;4982588;28;1898;-75
2023/11/08 06:58:30;;;;;;;;;;;6.80;99.90;;;6.28;100.00;97878.06;4982991;28;1028;-75
2023/11/08 07:01:01;;;;;;;;;;;6.80;99.90;;;6.22;100.00;97873.88;4999266;28;1455;-75
2023/11/08 07:03:37;;;;;;;;;;;6.90;99.90;;;6.22;100.00;97876.44;4987879;28;1058;-74
2023/11/08 07:06:05;;;;;;;;;;;7.00;99.90;;;6.28;100.00;97878.06;4988249;28;1436;-74
2023/11/08 07:08:32;;;;;;;;;;;7.00;99.90;;;6.27;100.00;97887.53;4974966;28;1367;-75
2023/11/08 07:11:00;;;;;;;;;;;7.00;99.90;;;6.27;100.00;97889.25;4990839;28;1413;-75
2023/11/08 07:13:27;;;;;;;;;;;7.00;99.90;;;6.29;100.00;97897.78;4987925;28;1237;-75
2023/11/08 07:15:53;;;;;;;;;;;7.00;99.90;;;6.25;100.00;97899.59;4986185;28;1982;-75
2023/11/08 07:18:21;;;;;;;;;;;7.00;99.90;;;6.30;100.00;97891.78;4990145;28;1067;-75
2023/11/08 07:20:48;;;;;;;;;;;7.00;99.90;;;6.23;100.00;97901.34;4984490;28;1534;-75
2023/11/08 07:23:15;;;;;;;;;;;7.00;99.90;;;6.27;100.00;97905.56;4986631;28;1673;-75
2023/11/08 07:25:42;;;;;;;;;;;7.00;99.90;;;6.27;100.00;97894.41;4984637;28;1374;-74
2023/11/08 07:28:09;;;;;;;;;;;7.00;99.90;;;6.36;100.00;97904.53;5000372;28;1588;-74
2023/11/08 07:30:38;;;;;;;;;;;7.00;99.90;;;6.24;100.00;97915.94;4985791;28;1387;-75
2023/11/08 07:33:05;;;;;;;;;;;7.00;99.90;;;6.35;100.00;97905.41;4972200;28;1696;-75
2023/11/08 07:35:32;;;;;;;;;;;7.00;99.90;;;6.19;100.00;97906.59;4988690;28;1930;-75
2023/11/08 07:38:00;;;;;;;;;;;7.00;99.90;;;6.15;100.00;97918.69;4986075;28;1436;-75
2023/11/08 07:40:27;;;;;;;;;;;7.00;99.90;;;6.25;100.00;97915.06;4987314;28;1411;-75
2023/11/08 07:42:57;;;;;;;;;;;7.00;99.90;;;6.23;100.00;97924.56;4982983;28;1496;-75
2023/11/08 07:45:24;;;;;;;;;;;7.00;99.90;;;6.12;100.00;97911.03;4986583;28;1848;-75
2023/11/08 07:47:51;;;;;;;;;;;7.00;99.90;;;6.31;100.00;97932.13;4987826;28;1422;-75
2023/11/08 07:50:19;;;;;;;;;;;6.90;99.90;;;6.33;100.00;97922.63;4997900;28;1467;-74
2023/11/08 07:52:45;;;;;;;;;;;7.00;99.90;;;6.36;100.00;97927.72;4982091;28;1417;-75
2023/11/08 07:55:12;;;;;;;;;;;7.00;99.90;;;6.30;100.00;97927.88;4986560;28;1910;-75
2023/11/08 07:57:40;;;;;;;;;;;7.00;99.90;;;6.36;100.00;97922.56;4986639;28;1657;-75
2023/11/08 08:00:14;;;;;;;;;;;7.00;99.90;;;6.43;100.00;97931.91;4984813;28;1470;-74
2023/11/08 08:02:43;;;;;;;;;;;7.10;99.90;;;6.60;100.00;97918.66;4986115;28;1727;-75
2023/11/08 08:05:12;;;;;;;;;;;7.30;99.90;;;6.57;100.00;97923.00;4985820;28;1519;-75
2023/11/08 08:07:39;;;;;;;;;;;7.20;99.90;;;6.65;100.00;97932.28;4988864;28;1429;-73
2023/11/08 08:10:06;;;;;;;;;;;7.30;99.90;;;6.82;100.00;97934.53;4986903;28;1366;-73
2023/11/08 08:12:33;;;;;;;;;;;7.40;99.90;;;6.75;100.00;97927.81;4986347;28;1698;-73
2023/11/08 08:15:12;;;;;;;;;;;7.30;99.90;;;6.88;100.00;97928.34;4985324;28;1972;-73
2023/11/08 08:17:39;;;;;;;;;;;7.30;99.90;;;6.94;100.00;97933.41;4985494;28;1627;-73
2023/11/08 08:20:09;;;;;;;;;;;7.30;99.90;;;6.95;100.00;97927.34;4968572;28;1659;-73
2023/11/08 08:22:36;;;;;;;;;;;7.50;99.90;;;6.73;100.00;97931.28;4984140;28;1481;-73
2023/11/08 08:25:03;;;;;;;;;;;7.40;99.90;;;6.82;100.00;97928.47;4978986;28;1446;-73
2023/11/08 08:27:32;;;;;;;;;;;7.40;99.90;;;6.81;100.00;97924.22;4970003;28;1504;-73
2023/11/08 08:29:59;;;;;;;;;;;7.40;99.90;;;6.94;100.00;97925.66;4983376;28;1372;-73
2023/11/08 08:32:26;;;;;;;;;;;7.40;99.90;;;6.85;100.00;97923.28;4983981;28;1468;-73
2023/11/08 08:34:54;;;;;;;;;;;7.50;99.90;;;6.86;100.00;97923.22;4984979;28;1930;-73
2023/11/08 08:37:22;;;;;;;;;;;7.50;99.90;;;7.01;100.00;97940.13;4984347;28;1675;-73
2023/11/08 08:39:48;;;;;;;;;;;7.50;99.90;;;7.02;100.00;97928.91;4984587;28;1538;-73
2023/11/08 08:42:15;;;;;;;;;;;7.50;99.90;;;7.10;100.00;97936.47;4971390;28;1456;-73
2023/11/08 08:44:43;;;;;;;;;;;7.60;99.90;;;7.10;100.00;97942.47;4986367;28;1284;-72
2023/11/08 08:47:10;;;;;;;;;;;7.60;99.90;;;7.01;100.00;97945.28;4982743;28;1491;-73
2023/11/08 08:49:37;;;;;;;;;;;7.60;99.90;;;7.09;100.00;97951.13;4989309;28;1943;-72
2023/11/08 08:52:05;;;;;;;;;;;7.60;99.90;;;7.21;100.00;97946.56;4985350;28;1470;-72
2023/11/08 08:54:33;;;;;;;;;;;7.70;99.90;;;7.19;100.00;97944.00;4982396;28;1914;-72
2023/11/08 08:57:01;;;;;;;;;;;7.70;99.90;;;7.01;100.00;97934.94;4979988;28;1547;-73
2023/11/08 08:59:28;;;;;;;;;;;7.70;99.90;;;7.07;100.00;97959.75;4983725;28;1288;-73
2023/11/08 09:01:55;;;;;;;;;;;7.60;99.90;;;6.88;100.00;97943.84;4981720;28;1424;-72
2023/11/08 09:04:23;;;;;;;;;;;7.60;99.90;;;7.02;100.00;97949.53;4986332;28;1634;-75
2023/11/08 09:06:50;;;;;;;;;;;7.50;99.90;;;7.10;100.00;97944.22;4987460;28;1468;-73
2023/11/08 09:09:18;;;;;;;;;;;7.50;99.90;;;7.05;100.00;97940.91;4986297;28;1254;-73
2023/11/08 09:11:45;;;;;;;;;;;7.60;99.90;;;7.20;100.00;97939.69;4986255;28;1490;-73
2023/11/08 09:14:12;;;;;;;;;;;7.70;99.90;;;7.25;100.00;97937.84;4987908;28;1938;-73
2023/11/08 09:16:40;;;;;;;;;;;7.70;99.90;;;7.07;100.00;97929.66;4986370;28;1531;-73
2023/11/08 09:19:08;;;;;;;;;;;7.80;99.90;;;7.12;100.00;97926.97;4985493;28;1404;-72
2023/11/08 09:21:36;;;;;;;;;;;7.80;99.90;;;7.04;100.00;97921.13;4983024;28;1422;-73
2023/11/08 09:24:06;;;;;;;;;;;7.70;99.90;;;7.17;100.00;97938.03;4986221;28;1396;-72
2023/11/08 09:26:34;;;;;;;;;;;7.90;99.90;;;7.32;100.00;97926.47;4987409;28;1445;-73
2023/11/08 09:29:01;;;;;;;;;;;7.90;99.90;;;7.39;100.00;97930.63;4986731;28;1404;-73
2023/11/08 09:31:28;;;;;;;;;;;8.00;99.90;;;7.47;100.00;97914.94;4982697;28;1463;-72
2023/11/08 09:33:59;;;;;;;;;;;8.10;99.90;;;7.63;100.00;97915.41;4985624;28;1678;-72
2023/11/08 09:36:27;;;;;;;;;;;8.20;99.90;;;7.75;100.00;97915.97;4987579;28;1895;-73
2023/11/08 09:38:54;;;;;;;;;;;8.20;99.90;;;7.83;100.00;97907.16;4985868;28;1233;-72
2023/11/08 09:41:22;;;;;;;;;;;8.20;99.90;;;7.63;100.00;97900.75;4984086;28;1472;-72
2023/11/08 09:43:51;;;;;;;;;;;8.30;99.90;;;7.59;100.00;97906.88;4985379;28;1276;-73
2023/11/08 09:46:18;;;;;;;;;;;8.20;99.90;;;7.75;100.00;97897.00;4985741;28;1479;-72
2023/11/08 09:48:45;;;;;;;;;;;8.30;99.90;;;7.77;100.00;97886.63;4984998;28;1392;-72
2023/11/08 09:51:13;;;;;;;;;;;8.30;99.90;;;7.81;100.00;97878.75;4985487;28;1581;-72
2023/11/08 09:53:44;;;;;;;;;;;8.50;99.90;;;7.86;100.00;97873.47;4981595;28;1694;-72
2023/11/08 09:56:11;;;;;;;;;;;8.50;99.90;;;7.85;100.00;97869.19;4968597;28;1977;-73
2023/11/08 09:58:45;;;;;;;;;;;8.50;99.90;;;7.92;100.00;97873.31;4986483;28;1567;-72
2023/11/08 10:01:16;;;;;;;;;;;8.50;99.90;;;8.02;100.00;97856.63;4986001;28;1603;-73
2023/11/08 10:03:46;;;;;;;;;;;8.70;99.90;;;8.12;100.00;97855.50;4993652;28;1510;-72
2023/11/08 10:06:14;;;;;;;;;;;8.70;99.90;;;8.18;100.00;97870.81;4968425;28;1868;-73
2023/11/08 10:08:42;;;;;;;;;;;8.70;99.90;;;8.08;100.00;97840.13;4984213;28;1765;-73
2023/11/08 10:11:10;;;;;;;;;;;8.80;99.90;;;8.27;100.00;97851.63;4983603;28;1443;-72
2023/11/08 10:13:42;;;;;;;;;;;8.70;99.90;;;8.28;100.00;97855.03;4981099;28;1583;-72
2023/11/08 10:16:13;;;;;;;;;;;8.70;99.90;;;8.48;100.00;97849.31;4984674;28;1906;-72
2023/11/08 10:18:42;;;;;;;;;;;8.90;99.90;;;8.41;100.00;97842.66;4984370;28;1421;-73
2023/11/08 10:21:31;;;;;;;;;;;8.90;99.90;;;8.41;100.00;97842.66;4983833;28;1623;-72
2023/11/08 10:24:08;;;;;;;;;;;9.00;99.90;;;8.55;100.00;97836.19;4981695;28;1567;-73
2023/11/08 10:26:39;;;;;;;;;;;8.90;99.90;;;8.24;100.00;97843.13;4982665;28;1430;-73
2023/11/08 10:29:07;;;;;;;;;;;9.00;99.90;;;8.22;100.00;97845.75;4986070;28;1411;-72
2023/11/08 10:31:35;;;;;;;;;;;8.90;99.90;;;7.89;100.00;97858.72;4999634;28;1482;-72
2023/11/08 10:34:11;;;;;;;;;;;8.80;99.90;;;7.77;100.00;97850.44;4982901;28;1224;-73
2023/11/08 10:36:39;;;;;;;;;;;8.60;99.90;;;7.88;100.00;97833.75;4983422;28;1977;-72
2023/11/08 10:39:13;;;;;;;;;;;8.60;99.90;;;7.94;100.00;97856.88;4985752;28;1256;-71
2023/11/08 10:41:45;;;;;;;;;;;8.50;99.90;;;7.87;100.00;97845.00;4989377;28;1658;-73
2023/11/08 10:44:14;;;;;;;;;;;8.50;99.90;;;8.04;100.00;97848.84;4994713;28;1466;-73
2023/11/08 10:46:42;;;;;;;;;;;8.40;99.90;;;7.72;100.00;97823.00;4982820;28;1571;-76
2023/11/08 10:49:10;;;;;;;;;;;8.50;99.90;;;7.77;100.00;97838.38;4987162;28;1516;-73
2023/11/08 10:51:40;;;;;;;;;;;8.50;99.90;;;7.70;100.00;97834.25;4988235;28;1530;-73
2023/11/08 10:54:08;;;;;;;;;;;8.40;99.90;;;7.84;100.00;97836.47;4970178;28;1545;-73
2023/11/08 10:56:40;;;;;;;;;;;8.40;99.90;;;7.83;100.00;97858.06;4988865;28;1973;-74
2023/11/08 10:59:09;;;;;;;;;;;8.30;99.90;;;7.90;100.00;97851.81;4985997;28;1631;-74
2023/11/08 11:01:41;;;;;;;;;;;8.40;99.90;;;7.70;100.00;97837.69;4987112;28;1576;-72
2023/11/08 11:04:11;;;;;;;;;;;8.40;99.90;;;7.85;100.00;97833.00;4985890;28;1541;-73
2023/11/08 11:06:40;;;;;;;;;;;8.50;99.90;;;7.84;100.00;97846.81;4986003;28;1771;-73
2023/11/08 11:09:12;;;;;;;;;;;8.40;99.90;;;7.90;100.00;97837.16;4985464;28;1813;-73
2023/11/08 11:11:42;;;;;;;;;;;8.40;99.90;;;8.07;100.00;97849.59;4989537;28;1871;-73
2023/11/08 11:14:31;;;;;;;;;;;8.40;99.90;;;8.13;100.00;97817.56;4988408;28;1708;-73
2023/11/08 11:17:15;;;;;;;;;;;8.40;99.90;;;8.12;100.00;97833.97;4984466;28;1902;-73
2023/11/08 11:19:46;;;;;;;;;;;8.60;99.90;;;8.08;100.00;97832.38;4986266;28;1565;-73
2023/11/08 11:22:16;;;;;;;;;;;8.60;99.90;;;8.17;100.00;97819.19;4987310;28;1562;-73
2023/11/08 11:24:45;;;;;;;;;;;8.70;99.90;;;8.15;100.00;97814.03;4984183;28;1623;-73
2023/11/08 11:27:31;;;;;;;;;;;8.70;99.90;;;8.05;100.00;97828.13;4989525;28;1923;-73
2023/11/08 11:30:13;;;;;;;;;;;8.70;99.90;;;8.17;100.00;97835.53;4991804;28;1912;-73
2023/11/08 11:32:46;;;;;;;;;;;8.70;99.90;;;8.15;100.00;97810.63;4982910;28;1656;-73
2023/11/08 11:35:17;;;;;;;;;;;8.80;99.90;;;8.14;100.00;97814.94;4979308;28;1985;-73
2023/11/08 11:38:06;;;;;;;;;;;8.70;99.90;;;7.93;100.00;97818.97;4983786;28;1530;-73
2023/11/08 11:40:45;;;;;;;;;;;8.60;99.90;;;7.95;100.00;97819.78;4986315;28;1642;-73